Flat Rock, Ohio
Current Conditions -  °F | °C
As of 7:52 AM on Friday 19 Dec 2014 (Local Time) from KPCW Reporting Station
Overcast Overcast  
Wind Chill: 22°   Ceiling: 1300
Heat Index: 27°   Visibility: 10mi
Dew Point: 23°   Wind: 5mph
Humidity: 84%   Direction: 40°NE
Pressure: 30.25"   Gusts: NA
Location:  41.24°N, 82.86°W
Report Text: KPCW 191252Z AUTO 04004KT 10SM OVC013 M03/M05 A3025 RMK AO2 T10271050 $
Loading
Personal Weather Stations






























Interactive Weather Map New forecast layout! Learn more

10-Day Weather Forecast

Advertisements
Track Severe Weather on mobile